sensor_id;sensor_type;location;lat;lon;timestamp;P1;durP1;ratioP1;P2;durP2;ratioP2
73642;SDS011;61938;48.652;9.292;2022-07-03T00:01:18;3.58;;;2.90;;
73642;SDS011;61938;48.652;9.292;2022-07-03T00:03:44;5.88;;;3.25;;
73642;SDS011;61938;48.652;9.292;2022-07-03T00:06:10;6.65;;;3.00;;
73642;SDS011;61938;48.652;9.292;2022-07-03T00:08:36;8.38;;;2.80;;
73642;SDS011;61938;48.652;9.292;2022-07-03T00:11:03;4.70;;;2.47;;
73642;SDS011;61938;48.652;9.292;2022-07-03T00:13:30;5.78;;;2.63;;
73642;SDS011;61938;48.652;9.292;2022-07-03T00:15:56;7.40;;;3.13;;
73642;SDS011;61938;48.652;9.292;2022-07-03T00:18:21;4.53;;;2.72;;
73642;SDS011;61938;48.652;9.292;2022-07-03T00:20:48;6.10;;;2.95;;
73642;SDS011;61938;48.652;9.292;2022-07-03T00:23:18;6.93;;;2.83;;
73642;SDS011;61938;48.652;9.292;2022-07-03T00:25:47;5.45;;;2.90;;
73642;SDS011;61938;48.652;9.292;2022-07-03T00:28:14;4.47;;;2.70;;
73642;SDS011;61938;48.652;9.292;2022-07-03T00:30:43;4.32;;;2.85;;
73642;SDS011;61938;48.652;9.292;2022-07-03T00:33:12;4.93;;;3.15;;
73642;SDS011;61938;48.652;9.292;2022-07-03T00:35:40;7.25;;;3.58;;
73642;SDS011;61938;48.652;9.292;2022-07-03T00:38:11;5.55;;;3.70;;
73642;SDS011;61938;48.652;9.292;2022-07-03T00:40:37;6.05;;;3.55;;
73642;SDS011;61938;48.652;9.292;2022-07-03T00:43:03;6.20;;;4.00;;
73642;SDS011;61938;48.652;9.292;2022-07-03T00:45:33;7.95;;;3.80;;
73642;SDS011;61938;48.652;9.292;2022-07-03T00:47:59;6.28;;;3.83;;
73642;SDS011;61938;48.652;9.292;2022-07-03T00:50:26;6.60;;;4.07;;
73642;SDS011;61938;48.652;9.292;2022-07-03T00:53:01;9.07;;;3.80;;
73642;SDS011;61938;48.652;9.292;2022-07-03T00:55:28;5.72;;;3.45;;
73642;SDS011;61938;48.652;9.292;2022-07-03T00:57:55;9.77;;;3.78;;
73642;SDS011;61938;48.652;9.292;2022-07-03T01:00:22;7.75;;;4.20;;
73642;SDS011;61938;48.652;9.292;2022-07-03T01:06:07;7.03;;;4.30;;
73642;SDS011;61938;48.652;9.292;2022-07-03T01:08:34;5.88;;;3.65;;
73642;SDS011;61938;48.652;9.292;2022-07-03T01:16:44;10.30;;;3.75;;
73642;SDS011;61938;48.652;9.292;2022-07-03T01:19:30;5.72;;;3.45;;
73642;SDS011;61938;48.652;9.292;2022-07-03T01:24:52;5.35;;;3.33;;
73642;SDS011;61938;48.652;9.292;2022-07-03T01:30:17;6.80;;;3.05;;
73642;SDS011;61938;48.652;9.292;2022-07-03T01:32:46;7.80;;;4.15;;
73642;SDS011;61938;48.652;9.292;2022-07-03T01:35:31;4.57;;;3.08;;
73642;SDS011;61938;48.652;9.292;2022-07-03T01:38:03;4.05;;;3.47;;
73642;SDS011;61938;48.652;9.292;2022-07-03T01:42:57;5.43;;;3.85;;
73642;SDS011;61938;48.652;9.292;2022-07-03T01:45:27;4.40;;;3.35;;
73642;SDS011;61938;48.652;9.292;2022-07-03T01:47:55;5.53;;;3.72;;
73642;SDS011;61938;48.652;9.292;2022-07-03T01:50:23;7.15;;;4.10;;
73642;SDS011;61938;48.652;9.292;2022-07-03T01:52:51;6.20;;;3.45;;
73642;SDS011;61938;48.652;9.292;2022-07-03T01:55:18;6.75;;;3.75;;
73642;SDS011;61938;48.652;9.292;2022-07-03T01:57:48;5.32;;;3.70;;
73642;SDS011;61938;48.652;9.292;2022-07-03T02:00:17;8.82;;;3.60;;
73642;SDS011;61938;48.652;9.292;2022-07-03T02:03:27;7.38;;;3.83;;
73642;SDS011;61938;48.652;9.292;2022-07-03T02:05:35;6.47;;;3.65;;
73642;SDS011;61938;48.652;9.292;2022-07-03T02:14:01;5.53;;;3.92;;
73642;SDS011;61938;48.652;9.292;2022-07-03T02:16:36;6.07;;;3.42;;
73642;SDS011;61938;48.652;9.292;2022-07-03T02:19:14;8.48;;;3.35;;
73642;SDS011;61938;48.652;9.292;2022-07-03T02:21:45;8.32;;;4.43;;
73642;SDS011;61938;48.652;9.292;2022-07-03T02:24:18;5.60;;;3.70;;
73642;SDS011;61938;48.652;9.292;2022-07-03T02:27:01;5.47;;;3.65;;
73642;SDS011;61938;48.652;9.292;2022-07-03T02:29:33;5.63;;;3.80;;
73642;SDS011;61938;48.652;9.292;2022-07-03T02:32:10;5.80;;;4.05;;
73642;SDS011;61938;48.652;9.292;2022-07-03T02:34:38;11.85;;;4.22;;
73642;SDS011;61938;48.652;9.292;2022-07-03T02:37:19;5.65;;;3.80;;
73642;SDS011;61938;48.652;9.292;2022-07-03T02:39:57;6.28;;;3.13;;
73642;SDS011;61938;48.652;9.292;2022-07-03T02:42:38;5.32;;;3.45;;
73642;SDS011;61938;48.652;9.292;2022-07-03T02:45:11;8.15;;;3.95;;
73642;SDS011;61938;48.652;9.292;2022-07-03T02:47:51;5.38;;;3.95;;
73642;SDS011;61938;48.652;9.292;2022-07-03T02:50:32;4.85;;;3.55;;
73642;SDS011;61938;48.652;9.292;2022-07-03T02:53:06;6.95;;;3.90;;
73642;SDS011;61938;48.652;9.292;2022-07-03T02:55:45;9.98;;;4.05;;
73642;SDS011;61938;48.652;9.292;2022-07-03T03:03:57;11.48;;;3.95;;
73642;SDS011;61938;48.652;9.292;2022-07-03T03:06:48;5.30;;;4.03;;
73642;SDS011;61938;48.652;9.292;2022-07-03T03:09:28;9.38;;;4.05;;
73642;SDS011;61938;48.652;9.292;2022-07-03T03:12:03;6.85;;;3.80;;
73642;SDS011;61938;48.652;9.292;2022-07-03T03:14:38;6.70;;;3.90;;
73642;SDS011;61938;48.652;9.292;2022-07-03T03:17:16;8.27;;;3.63;;
73642;SDS011;61938;48.652;9.292;2022-07-03T03:19:45;5.22;;;3.50;;
73642;SDS011;61938;48.652;9.292;2022-07-03T03:24:55;5.43;;;3.40;;
73642;SDS011;61938;48.652;9.292;2022-07-03T03:27:21;7.53;;;3.83;;
73642;SDS011;61938;48.652;9.292;2022-07-03T03:29:47;8.32;;;3.78;;
73642;SDS011;61938;48.652;9.292;2022-07-03T03:32:15;6.88;;;4.25;;
73642;SDS011;61938;48.652;9.292;2022-07-03T03:34:41;5.60;;;3.97;;
73642;SDS011;61938;48.652;9.292;2022-07-03T03:37:09;5.00;;;3.67;;
73642;SDS011;61938;48.652;9.292;2022-07-03T03:39:35;7.95;;;5.05;;
73642;SDS011;61938;48.652;9.292;2022-07-03T03:42:00;7.55;;;5.55;;
73642;SDS011;61938;48.652;9.292;2022-07-03T03:44:26;9.93;;;3.90;;
73642;SDS011;61938;48.652;9.292;2022-07-03T03:46:52;5.57;;;3.50;;
73642;SDS011;61938;48.652;9.292;2022-07-03T03:49:20;5.90;;;3.88;;
73642;SDS011;61938;48.652;9.292;2022-07-03T03:51:46;7.70;;;3.72;;
73642;SDS011;61938;48.652;9.292;2022-07-03T03:54:11;8.32;;;3.30;;
73642;SDS011;61938;48.652;9.292;2022-07-03T03:56:37;6.28;;;3.40;;
73642;SDS011;61938;48.652;9.292;2022-07-03T03:59:03;7.25;;;3.42;;
73642;SDS011;61938;48.652;9.292;2022-07-03T04:01:29;5.30;;;3.80;;
73642;SDS011;61938;48.652;9.292;2022-07-03T04:03:55;4.93;;;3.55;;
73642;SDS011;61938;48.652;9.292;2022-07-03T04:06:21;6.20;;;4.30;;
73642;SDS011;61938;48.652;9.292;2022-07-03T04:08:47;11.13;;;3.85;;
73642;SDS011;61938;48.652;9.292;2022-07-03T04:11:12;8.90;;;4.10;;
73642;SDS011;61938;48.652;9.292;2022-07-03T04:13:38;6.53;;;4.32;;
73642;SDS011;61938;48.652;9.292;2022-07-03T04:16:04;5.63;;;4.20;;
73642;SDS011;61938;48.652;9.292;2022-07-03T04:18:30;8.77;;;4.50;;
73642;SDS011;61938;48.652;9.292;2022-07-03T04:20:55;6.68;;;4.22;;
73642;SDS011;61938;48.652;9.292;2022-07-03T04:23:21;6.22;;;4.15;;
73642;SDS011;61938;48.652;9.292;2022-07-03T04:25:47;7.00;;;4.55;;
73642;SDS011;61938;48.652;9.292;2022-07-03T04:28:13;7.05;;;4.30;;
73642;SDS011;61938;48.652;9.292;2022-07-03T04:30:39;6.50;;;3.67;;
73642;SDS011;61938;48.652;9.292;2022-07-03T04:33:05;6.38;;;3.78;;
73642;SDS011;61938;48.652;9.292;2022-07-03T04:35:31;5.68;;;3.90;;
73642;SDS011;61938;48.652;9.292;2022-07-03T04:37:56;8.48;;;4.25;;
73642;SDS011;61938;48.652;9.292;2022-07-03T04:40:22;7.32;;;4.90;;
73642;SDS011;61938;48.652;9.292;2022-07-03T04:42:48;8.90;;;4.88;;
73642;SDS011;61938;48.652;9.292;2022-07-03T04:45:14;8.75;;;4.90;;
73642;SDS011;61938;48.652;9.292;2022-07-03T04:47:39;8.25;;;4.68;;
73642;SDS011;61938;48.652;9.292;2022-07-03T04:50:05;8.82;;;4.57;;
73642;SDS011;61938;48.652;9.292;2022-07-03T04:52:31;8.07;;;4.28;;
73642;SDS011;61938;48.652;9.292;2022-07-03T04:54:57;5.38;;;3.83;;
73642;SDS011;61938;48.652;9.292;2022-07-03T04:57:23;9.43;;;3.85;;
73642;SDS011;61938;48.652;9.292;2022-07-03T04:59:49;5.97;;;3.88;;
73642;SDS011;61938;48.652;9.292;2022-07-03T05:02:14;6.55;;;4.05;;
73642;SDS011;61938;48.652;9.292;2022-07-03T05:04:40;5.88;;;4.22;;
73642;SDS011;61938;48.652;9.292;2022-07-03T05:07:06;13.50;;;4.28;;
73642;SDS011;61938;48.652;9.292;2022-07-03T05:09:32;8.05;;;3.85;;
73642;SDS011;61938;48.652;9.292;2022-07-03T05:11:57;7.70;;;3.95;;
73642;SDS011;61938;48.652;9.292;2022-07-03T05:14:23;5.25;;;3.40;;
73642;SDS011;61938;48.652;9.292;2022-07-03T05:16:49;5.13;;;3.67;;
73642;SDS011;61938;48.652;9.292;2022-07-03T05:19:14;5.65;;;3.97;;
73642;SDS011;61938;48.652;9.292;2022-07-03T05:21:40;6.32;;;3.60;;
73642;SDS011;61938;48.652;9.292;2022-07-03T05:24:06;10.98;;;4.32;;
73642;SDS011;61938;48.652;9.292;2022-07-03T05:26:32;12.60;;;3.67;;
73642;SDS011;61938;48.652;9.292;2022-07-03T05:28:58;7.40;;;3.42;;
73642;SDS011;61938;48.652;9.292;2022-07-03T05:31:24;5.20;;;3.70;;
73642;SDS011;61938;48.652;9.292;2022-07-03T05:33:49;5.57;;;3.67;;
73642;SDS011;61938;48.652;9.292;2022-07-03T05:36:15;11.27;;;3.80;;
73642;SDS011;61938;48.652;9.292;2022-07-03T05:38:41;6.68;;;3.60;;
73642;SDS011;61938;48.652;9.292;2022-07-03T05:41:25;6.30;;;3.33;;
73642;SDS011;61938;48.652;9.292;2022-07-03T05:43:51;4.30;;;3.30;;
73642;SDS011;61938;48.652;9.292;2022-07-03T05:46:16;5.78;;;3.22;;
73642;SDS011;61938;48.652;9.292;2022-07-03T05:48:42;7.75;;;3.55;;
73642;SDS011;61938;48.652;9.292;2022-07-03T05:51:08;4.45;;;3.30;;
73642;SDS011;61938;48.652;9.292;2022-07-03T05:53:34;7.07;;;3.83;;
73642;SDS011;61938;48.652;9.292;2022-07-03T05:55:59;5.28;;;3.50;;
73642;SDS011;61938;48.652;9.292;2022-07-03T05:58:26;4.00;;;3.03;;
73642;SDS011;61938;48.652;9.292;2022-07-03T06:00:52;6.18;;;3.35;;
73642;SDS011;61938;48.652;9.292;2022-07-03T06:03:18;3.60;;;2.88;;
73642;SDS011;61938;48.652;9.292;2022-07-03T06:05:43;6.78;;;3.13;;
73642;SDS011;61938;48.652;9.292;2022-07-03T06:08:09;5.22;;;3.45;;
73642;SDS011;61938;48.652;9.292;2022-07-03T06:10:35;6.38;;;4.15;;
73642;SDS011;61938;48.652;9.292;2022-07-03T06:13:01;6.63;;;3.05;;
73642;SDS011;61938;48.652;9.292;2022-07-03T06:15:27;5.68;;;3.10;;
73642;SDS011;61938;48.652;9.292;2022-07-03T06:17:53;6.13;;;3.03;;
73642;SDS011;61938;48.652;9.292;2022-07-03T06:20:19;8.68;;;3.45;;
73642;SDS011;61938;48.652;9.292;2022-07-03T06:22:45;3.70;;;2.83;;
73642;SDS011;61938;48.652;9.292;2022-07-03T06:25:11;4.00;;;2.50;;
73642;SDS011;61938;48.652;9.292;2022-07-03T06:27:37;5.82;;;3.78;;
73642;SDS011;61938;48.652;9.292;2022-07-03T06:30:03;4.43;;;2.83;;
73642;SDS011;61938;48.652;9.292;2022-07-03T06:32:29;5.22;;;2.95;;
73642;SDS011;61938;48.652;9.292;2022-07-03T06:34:55;3.63;;;2.58;;
73642;SDS011;61938;48.652;9.292;2022-07-03T06:37:21;7.05;;;3.00;;
73642;SDS011;61938;48.652;9.292;2022-07-03T06:39:47;3.17;;;2.63;;
73642;SDS011;61938;48.652;9.292;2022-07-03T06:42:13;3.55;;;2.63;;
73642;SDS011;61938;48.652;9.292;2022-07-03T06:44:39;5.95;;;2.88;;
73642;SDS011;61938;48.652;9.292;2022-07-03T06:47:06;8.55;;;2.70;;
73642;SDS011;61938;48.652;9.292;2022-07-03T06:49:32;3.42;;;2.72;;
73642;SDS011;61938;48.652;9.292;2022-07-03T06:51:59;3.50;;;2.28;;
73642;SDS011;61938;48.652;9.292;2022-07-03T06:54:24;7.68;;;2.65;;
73642;SDS011;61938;48.652;9.292;2022-07-03T06:56:50;6.50;;;3.03;;
73642;SDS011;61938;48.652;9.292;2022-07-03T06:59:16;3.08;;;2.47;;
73642;SDS011;61938;48.652;9.292;2022-07-03T07:01:42;4.72;;;2.53;;
73642;SDS011;61938;48.652;9.292;2022-07-03T07:04:08;6.13;;;2.70;;
73642;SDS011;61938;48.652;9.292;2022-07-03T07:06:34;3.30;;;2.67;;
73642;SDS011;61938;48.652;9.292;2022-07-03T07:09:00;8.25;;;3.00;;
73642;SDS011;61938;48.652;9.292;2022-07-03T07:11:25;4.05;;;2.60;;
73642;SDS011;61938;48.652;9.292;2022-07-03T07:13:51;4.55;;;2.53;;
73642;SDS011;61938;48.652;9.292;2022-07-03T07:16:17;5.38;;;2.65;;
73642;SDS011;61938;48.652;9.292;2022-07-03T07:18:43;3.30;;;2.33;;
73642;SDS011;61938;48.652;9.292;2022-07-03T07:21:09;3.28;;;2.13;;
73642;SDS011;61938;48.652;9.292;2022-07-03T07:23:35;6.10;;;2.63;;
73642;SDS011;61938;48.652;9.292;2022-07-03T07:26:02;3.80;;;2.10;;
73642;SDS011;61938;48.652;9.292;2022-07-03T07:28:28;3.78;;;2.38;;
73642;SDS011;61938;48.652;9.292;2022-07-03T07:30:55;4.20;;;2.35;;
73642;SDS011;61938;48.652;9.292;2022-07-03T07:33:22;5.00;;;1.90;;
73642;SDS011;61938;48.652;9.292;2022-07-03T07:35:48;2.97;;;2.38;;
73642;SDS011;61938;48.652;9.292;2022-07-03T07:38:15;3.85;;;2.67;;
73642;SDS011;61938;48.652;9.292;2022-07-03T07:40:41;3.97;;;2.15;;
73642;SDS011;61938;48.652;9.292;2022-07-03T07:43:06;3.08;;;2.42;;
73642;SDS011;61938;48.652;9.292;2022-07-03T07:45:32;5.22;;;2.10;;
73642;SDS011;61938;48.652;9.292;2022-07-03T07:47:59;5.28;;;2.20;;
73642;SDS011;61938;48.652;9.292;2022-07-03T07:50:24;4.47;;;2.03;;
73642;SDS011;61938;48.652;9.292;2022-07-03T07:52:50;2.53;;;1.88;;
73642;SDS011;61938;48.652;9.292;2022-07-03T07:55:17;4.95;;;1.83;;
73642;SDS011;61938;48.652;9.292;2022-07-03T07:57:43;2.90;;;1.80;;
73642;SDS011;61938;48.652;9.292;2022-07-03T08:00:14;2.30;;;1.70;;
73642;SDS011;61938;48.652;9.292;2022-07-03T08:02:41;3.28;;;1.80;;
73642;SDS011;61938;48.652;9.292;2022-07-03T08:05:26;4.65;;;1.83;;
73642;SDS011;61938;48.652;9.292;2022-07-03T08:08:15;2.42;;;1.80;;
73642;SDS011;61938;48.652;9.292;2022-07-03T08:10:45;2.22;;;1.70;;
73642;SDS011;61938;48.652;9.292;2022-07-03T08:13:13;1.73;;;1.20;;
73642;SDS011;61938;48.652;9.292;2022-07-03T08:15:40;2.58;;;1.20;;
73642;SDS011;61938;48.652;9.292;2022-07-03T08:18:07;2.65;;;1.10;;
73642;SDS011;61938;48.652;9.292;2022-07-03T08:20:33;1.95;;;1.17;;
73642;SDS011;61938;48.652;9.292;2022-07-03T08:23:00;3.83;;;1.45;;
73642;SDS011;61938;48.652;9.292;2022-07-03T08:25:27;2.95;;;1.35;;
73642;SDS011;61938;48.652;9.292;2022-07-03T08:27:52;4.28;;;1.30;;
73642;SDS011;61938;48.652;9.292;2022-07-03T08:30:18;3.58;;;1.30;;
73642;SDS011;61938;48.652;9.292;2022-07-03T08:32:45;4.30;;;1.20;;
73642;SDS011;61938;48.652;9.292;2022-07-03T08:35:12;6.13;;;1.42;;
73642;SDS011;61938;48.652;9.292;2022-07-03T08:37:38;1.45;;;1.20;;
73642;SDS011;61938;48.652;9.292;2022-07-03T08:40:08;2.33;;;1.38;;
73642;SDS011;61938;48.652;9.292;2022-07-03T08:42:37;1.73;;;1.23;;
73642;SDS011;61938;48.652;9.292;2022-07-03T08:45:05;4.28;;;1.38;;
73642;SDS011;61938;48.652;9.292;2022-07-03T08:47:33;3.13;;;1.33;;
73642;SDS011;61938;48.652;9.292;2022-07-03T08:50:01;1.75;;;1.10;;
73642;SDS011;61938;48.652;9.292;2022-07-03T08:52:27;3.78;;;1.30;;
73642;SDS011;61938;48.652;9.292;2022-07-03T08:54:54;4.22;;;1.10;;
73642;SDS011;61938;48.652;9.292;2022-07-03T08:57:20;1.15;;;0.80;;
73642;SDS011;61938;48.652;9.292;2022-07-03T08:59:50;3.17;;;0.88;;
73642;SDS011;61938;48.652;9.292;2022-07-03T09:02:17;1.58;;;1.05;;
73642;SDS011;61938;48.652;9.292;2022-07-03T09:04:44;6.78;;;1.05;;
73642;SDS011;61938;48.652;9.292;2022-07-03T09:07:11;2.70;;;1.52;;
73642;SDS011;61938;48.652;9.292;2022-07-03T09:09:39;3.95;;;1.17;;
73642;SDS011;61938;48.652;9.292;2022-07-03T09:12:05;2.05;;;0.80;;
73642;SDS011;61938;48.652;9.292;2022-07-03T09:14:30;1.63;;;0.88;;
73642;SDS011;61938;48.652;9.292;2022-07-03T09:16:57;2.03;;;0.95;;
73642;SDS011;61938;48.652;9.292;2022-07-03T09:19:39;4.97;;;1.05;;
73642;SDS011;61938;48.652;9.292;2022-07-03T09:22:18;1.08;;;0.77;;
73642;SDS011;61938;48.652;9.292;2022-07-03T09:24:46;4.05;;;1.25;;
73642;SDS011;61938;48.652;9.292;2022-07-03T09:27:17;1.23;;;0.88;;
73642;SDS011;61938;48.652;9.292;2022-07-03T09:38:02;1.85;;;0.98;;
73642;SDS011;61938;48.652;9.292;2022-07-03T09:40:50;2.72;;;1.00;;
73642;SDS011;61938;48.652;9.292;2022-07-03T09:43:21;2.40;;;1.10;;
73642;SDS011;61938;48.652;9.292;2022-07-03T09:45:53;2.65;;;0.90;;
73642;SDS011;61938;48.652;9.292;2022-07-03T09:48:23;2.50;;;0.80;;
73642;SDS011;61938;48.652;9.292;2022-07-03T09:50:49;1.95;;;1.00;;
73642;SDS011;61938;48.652;9.292;2022-07-03T09:53:42;0.80;;;0.70;;
73642;SDS011;61938;48.652;9.292;2022-07-03T09:56:08;1.00;;;0.90;;
73642;SDS011;61938;48.652;9.292;2022-07-03T09:58:34;1.63;;;0.90;;
73642;SDS011;61938;48.652;9.292;2022-07-03T10:01:20;1.65;;;0.73;;
73642;SDS011;61938;48.652;9.292;2022-07-03T10:03:47;1.00;;;0.90;;
73642;SDS011;61938;48.652;9.292;2022-07-03T10:06:13;1.60;;;1.00;;
73642;SDS011;61938;48.652;9.292;2022-07-03T10:08:39;1.15;;;0.90;;
73642;SDS011;61938;48.652;9.292;2022-07-03T10:11:08;3.78;;;1.05;;
73642;SDS011;61938;48.652;9.292;2022-07-03T10:13:36;1.15;;;1.02;;
73642;SDS011;61938;48.652;9.292;2022-07-03T10:16:05;4.95;;;0.95;;
73642;SDS011;61938;48.652;9.292;2022-07-03T10:18:32;4.45;;;1.30;;
73642;SDS011;61938;48.652;9.292;2022-07-03T10:21:02;2.55;;;0.80;;
73642;SDS011;61938;48.652;9.292;2022-07-03T10:23:31;1.88;;;1.00;;
73642;SDS011;61938;48.652;9.292;2022-07-03T10:25:58;3.65;;;1.00;;
73642;SDS011;61938;48.652;9.292;2022-07-03T10:28:24;4.38;;;1.10;;
73642;SDS011;61938;48.652;9.292;2022-07-03T10:30:50;2.53;;;0.90;;
73642;SDS011;61938;48.652;9.292;2022-07-03T10:33:16;3.50;;;0.73;;
73642;SDS011;61938;48.652;9.292;2022-07-03T10:35:52;2.13;;;0.85;;
73642;SDS011;61938;48.652;9.292;2022-07-03T10:41:28;1.45;;;1.02;;
73642;SDS011;61938;48.652;9.292;2022-07-03T10:44:14;2.65;;;1.00;;
73642;SDS011;61938;48.652;9.292;2022-07-03T10:46:58;1.20;;;0.90;;
73642;SDS011;61938;48.652;9.292;2022-07-03T10:49:24;2.75;;;0.77;;
73642;SDS011;61938;48.652;9.292;2022-07-03T10:54:19;0.98;;;0.80;;
73642;SDS011;61938;48.652;9.292;2022-07-03T11:00:10;1.80;;;1.00;;
73642;SDS011;61938;48.652;9.292;2022-07-03T11:02:29;1.52;;;0.80;;
73642;SDS011;61938;48.652;9.292;2022-07-03T11:07:26;4.72;;;1.02;;
73642;SDS011;61938;48.652;9.292;2022-07-03T11:15:32;1.20;;;0.80;;
73642;SDS011;61938;48.652;9.292;2022-07-03T11:28:47;1.02;;;0.80;;
73642;SDS011;61938;48.652;9.292;2022-07-03T11:33:45;1.30;;;0.80;;
73642;SDS011;61938;48.652;9.292;2022-07-03T11:41:09;1.55;;;0.80;;
73642;SDS011;61938;48.652;9.292;2022-07-03T11:43:35;3.75;;;1.23;;
73642;SDS011;61938;48.652;9.292;2022-07-03T11:46:02;0.80;;;0.80;;
73642;SDS011;61938;48.652;9.292;2022-07-03T11:48:30;3.00;;;0.90;;
73642;SDS011;61938;48.652;9.292;2022-07-03T11:51:00;0.75;;;0.65;;
73642;SDS011;61938;48.652;9.292;2022-07-03T11:53:32;1.95;;;0.80;;
73642;SDS011;61938;48.652;9.292;2022-07-03T11:58:46;3.63;;;0.85;;
73642;SDS011;61938;48.652;9.292;2022-07-03T12:04:08;1.10;;;0.70;;
73642;SDS011;61938;48.652;9.292;2022-07-03T12:09:38;0.88;;;0.70;;
73642;SDS011;61938;48.652;9.292;2022-07-03T12:12:02;2.72;;;0.70;;
73642;SDS011;61938;48.652;9.292;2022-07-03T12:17:11;5.10;;;0.90;;
73642;SDS011;61938;48.652;9.292;2022-07-03T12:19:51;2.03;;;1.00;;
73642;SDS011;61938;48.652;9.292;2022-07-03T12:22:44;2.17;;;0.80;;
73642;SDS011;61938;48.652;9.292;2022-07-03T12:25:10;1.63;;;0.77;;
73642;SDS011;61938;48.652;9.292;2022-07-03T12:27:41;1.17;;;0.75;;
73642;SDS011;61938;48.652;9.292;2022-07-03T12:30:12;3.75;;;0.80;;
73642;SDS011;61938;48.652;9.292;2022-07-03T12:32:47;0.85;;;0.70;;
73642;SDS011;61938;48.652;9.292;2022-07-03T12:35:13;1.77;;;0.93;;
73642;SDS011;61938;48.652;9.292;2022-07-03T12:37:46;3.63;;;0.90;;
73642;SDS011;61938;48.652;9.292;2022-07-03T12:40:14;1.30;;;0.80;;
73642;SDS011;61938;48.652;9.292;2022-07-03T12:42:53;1.58;;;0.95;;
73642;SDS011;61938;48.652;9.292;2022-07-03T12:45:23;1.67;;;0.93;;
73642;SDS011;61938;48.652;9.292;2022-07-03T12:48:03;1.40;;;0.70;;
73642;SDS011;61938;48.652;9.292;2022-07-03T12:50:46;8.02;;;1.90;;
73642;SDS011;61938;48.652;9.292;2022-07-03T12:53:26;0.93;;;0.60;;
73642;SDS011;61938;48.652;9.292;2022-07-03T12:55:51;2.38;;;0.75;;
73642;SDS011;61938;48.652;9.292;2022-07-03T12:58:22;3.70;;;0.75;;
73642;SDS011;61938;48.652;9.292;2022-07-03T13:01:06;2.03;;;0.93;;
73642;SDS011;61938;48.652;9.292;2022-07-03T13:03:56;1.80;;;0.80;;
73642;SDS011;61938;48.652;9.292;2022-07-03T13:06:22;1.23;;;0.70;;
73642;SDS011;61938;48.652;9.292;2022-07-03T13:08:53;3.08;;;0.80;;
73642;SDS011;61938;48.652;9.292;2022-07-03T13:11:35;4.00;;;1.48;;
73642;SDS011;61938;48.652;9.292;2022-07-03T13:16:34;2.42;;;0.88;;
73642;SDS011;61938;48.652;9.292;2022-07-03T13:19:01;4.47;;;1.05;;
73642;SDS011;61938;48.652;9.292;2022-07-03T13:21:29;2.25;;;1.00;;
73642;SDS011;61938;48.652;9.292;2022-07-03T13:23:55;2.25;;;0.93;;
73642;SDS011;61938;48.652;9.292;2022-07-03T13:26:21;3.20;;;0.70;;
73642;SDS011;61938;48.652;9.292;2022-07-03T13:28:48;2.63;;;1.10;;
73642;SDS011;61938;48.652;9.292;2022-07-03T13:31:14;3.53;;;0.98;;
73642;SDS011;61938;48.652;9.292;2022-07-03T13:33:39;2.38;;;0.80;;
73642;SDS011;61938;48.652;9.292;2022-07-03T13:36:05;1.65;;;0.80;;
73642;SDS011;61938;48.652;9.292;2022-07-03T13:38:31;1.70;;;0.90;;
73642;SDS011;61938;48.652;9.292;2022-07-03T13:40:57;4.35;;;1.30;;
73642;SDS011;61938;48.652;9.292;2022-07-03T13:43:22;1.55;;;0.82;;
73642;SDS011;61938;48.652;9.292;2022-07-03T13:45:48;1.23;;;0.85;;
73642;SDS011;61938;48.652;9.292;2022-07-03T13:48:14;2.17;;;0.85;;
73642;SDS011;61938;48.652;9.292;2022-07-03T13:50:43;3.38;;;0.80;;
73642;SDS011;61938;48.652;9.292;2022-07-03T13:53:09;2.75;;;1.10;;
73642;SDS011;61938;48.652;9.292;2022-07-03T13:55:34;1.92;;;1.00;;
73642;SDS011;61938;48.652;9.292;2022-07-03T13:58:00;4.95;;;1.00;;
73642;SDS011;61938;48.652;9.292;2022-07-03T14:00:30;5.10;;;0.95;;
73642;SDS011;61938;48.652;9.292;2022-07-03T14:02:56;2.55;;;1.30;;
73642;SDS011;61938;48.652;9.292;2022-07-03T14:05:22;3.35;;;1.23;;
73642;SDS011;61938;48.652;9.292;2022-07-03T14:07:48;2.78;;;1.05;;
73642;SDS011;61938;48.652;9.292;2022-07-03T14:10:14;4.07;;;1.02;;
73642;SDS011;61938;48.652;9.292;2022-07-03T14:12:40;2.97;;;1.15;;
73642;SDS011;61938;48.652;9.292;2022-07-03T14:15:06;3.08;;;1.10;;
73642;SDS011;61938;48.652;9.292;2022-07-03T14:17:33;2.00;;;0.93;;
73642;SDS011;61938;48.652;9.292;2022-07-03T14:19:58;2.95;;;0.98;;
73642;SDS011;61938;48.652;9.292;2022-07-03T14:22:24;2.38;;;0.90;;
73642;SDS011;61938;48.652;9.292;2022-07-03T14:24:51;2.53;;;0.95;;
73642;SDS011;61938;48.652;9.292;2022-07-03T14:27:17;1.98;;;1.00;;
73642;SDS011;61938;48.652;9.292;2022-07-03T14:30:02;1.77;;;0.95;;
73642;SDS011;61938;48.652;9.292;2022-07-03T14:32:47;3.42;;;1.20;;
73642;SDS011;61938;48.652;9.292;2022-07-03T14:35:13;2.08;;;0.90;;
73642;SDS011;61938;48.652;9.292;2022-07-03T14:37:39;6.78;;;0.80;;
73642;SDS011;61938;48.652;9.292;2022-07-03T14:40:05;3.05;;;1.00;;
73642;SDS011;61938;48.652;9.292;2022-07-03T14:42:32;1.33;;;0.73;;
73642;SDS011;61938;48.652;9.292;2022-07-03T14:44:58;4.47;;;1.25;;
73642;SDS011;61938;48.652;9.292;2022-07-03T14:47:23;1.25;;;0.70;;
73642;SDS011;61938;48.652;9.292;2022-07-03T14:49:49;5.47;;;0.80;;
73642;SDS011;61938;48.652;9.292;2022-07-03T14:52:15;1.58;;;0.82;;
73642;SDS011;61938;48.652;9.292;2022-07-03T14:54:41;4.70;;;0.90;;
73642;SDS011;61938;48.652;9.292;2022-07-03T14:57:52;0.97;;;0.70;;
73642;SDS011;61938;48.652;9.292;2022-07-03T15:00:12;5.13;;;1.00;;
73642;SDS011;61938;48.652;9.292;2022-07-03T15:03:24;1.35;;;0.80;;
73642;SDS011;61938;48.652;9.292;2022-07-03T15:05:32;4.28;;;1.00;;
73642;SDS011;61938;48.652;9.292;2022-07-03T15:08:12;2.72;;;0.80;;
73642;SDS011;61938;48.652;9.292;2022-07-03T15:10:42;1.67;;;0.80;;
73642;SDS011;61938;48.652;9.292;2022-07-03T15:13:08;4.78;;;0.80;;
73642;SDS011;61938;48.652;9.292;2022-07-03T15:15:33;1.98;;;0.80;;
73642;SDS011;61938;48.652;9.292;2022-07-03T15:18:01;1.20;;;0.75;;
73642;SDS011;61938;48.652;9.292;2022-07-03T15:20:32;4.72;;;1.13;;
73642;SDS011;61938;48.652;9.292;2022-07-03T15:25:27;1.90;;;0.68;;
73642;SDS011;61938;48.652;9.292;2022-07-03T15:27:55;2.72;;;0.90;;
73642;SDS011;61938;48.652;9.292;2022-07-03T15:30:22;2.55;;;0.90;;
73642;SDS011;61938;48.652;9.292;2022-07-03T15:32:48;1.30;;;1.13;;
73642;SDS011;61938;48.652;9.292;2022-07-03T15:35:15;2.42;;;1.25;;
73642;SDS011;61938;48.652;9.292;2022-07-03T15:51:15;3.55;;;1.00;;
73642;SDS011;61938;48.652;9.292;2022-07-03T15:54:03;3.30;;;1.20;;
73642;SDS011;61938;48.652;9.292;2022-07-03T15:56:34;4.85;;;1.30;;
73642;SDS011;61938;48.652;9.292;2022-07-03T15:59:05;2.13;;;1.02;;
73642;SDS011;61938;48.652;9.292;2022-07-03T16:01:34;4.00;;;1.17;;
73642;SDS011;61938;48.652;9.292;2022-07-03T16:04:28;2.38;;;1.08;;
73642;SDS011;61938;48.652;9.292;2022-07-03T16:07:00;2.42;;;1.33;;
73642;SDS011;61938;48.652;9.292;2022-07-03T16:09:29;2.38;;;1.50;;
73642;SDS011;61938;48.652;9.292;2022-07-03T16:11:55;1.20;;;1.00;;
73642;SDS011;61938;48.652;9.292;2022-07-03T16:14:21;1.92;;;1.20;;
73642;SDS011;61938;48.652;9.292;2022-07-03T16:16:48;1.25;;;1.10;;
73642;SDS011;61938;48.652;9.292;2022-07-03T16:19:14;2.45;;;1.30;;
73642;SDS011;61938;48.652;9.292;2022-07-03T16:21:43;2.47;;;1.30;;
73642;SDS011;61938;48.652;9.292;2022-07-03T16:24:09;3.72;;;1.73;;
73642;SDS011;61938;48.652;9.292;2022-07-03T16:26:36;2.35;;;1.55;;
73642;SDS011;61938;48.652;9.292;2022-07-03T16:29:02;6.40;;;1.70;;
73642;SDS011;61938;48.652;9.292;2022-07-03T16:31:32;5.05;;;1.60;;
73642;SDS011;61938;48.652;9.292;2022-07-03T16:34:10;2.42;;;1.10;;
73642;SDS011;61938;48.652;9.292;2022-07-03T16:36:53;2.33;;;1.42;;
73642;SDS011;61938;48.652;9.292;2022-07-03T16:39:33;7.18;;;2.25;;
73642;SDS011;61938;48.652;9.292;2022-07-03T16:42:00;1.38;;;1.00;;
73642;SDS011;61938;48.652;9.292;2022-07-03T16:44:27;3.20;;;1.55;;